Time;durP1;ratioP1;P1;durP2;ratioP2;P2;SDS_P1;SDS_P2;PMS_P1;PMS_P2;Temp;Humidity;BMP_temperature;BMP_pressure;BME280_temperature;BME280_humidity;BME280_pressure;Samples;Min_cycle;Max_cycle;Signal;HPM_P1;HPM_P2
2022/12/30 00:00:04;;;;;;;158.95;147.43;;;7.50;99.90;;;;;;5097796;28;20039;-69
2022/12/30 00:02:29;;;;;;;152.80;142.32;;;7.50;99.90;;;;;;5097996;28;20069;-69
2022/12/30 00:04:55;;;;;;;152.32;141.45;;;7.50;99.90;;;;;;5097689;28;20066;-69
2022/12/30 00:07:21;;;;;;;146.18;136.27;;;7.40;99.90;;;;;;5096780;28;20162;-69
2022/12/30 00:09:46;;;;;;;152.90;142.75;;;7.50;99.90;;;;;;5097825;28;20084;-69
2022/12/30 00:34:32;;;;;;;170.35;158.57;;;7.40;99.90;;;;;;5097230;28;20330;-69
2022/12/30 00:36:58;;;;;;;172.40;160.05;;;7.40;99.90;;;;;;5096623;28;20040;-69
2022/12/30 00:39:24;;;;;;;172.18;159.40;;;7.50;99.90;;;;;;5097370;28;20036;-69
2022/12/30 00:44:34;;;;;;;175.90;164.05;;;7.50;99.90;;;;;;5097864;28;20047;-69
2022/12/30 00:47:01;;;;;;;174.88;163.35;;;7.40;99.90;;;;;;5096267;28;20032;-69
2022/12/30 00:57:39;;;;;;;170.57;158.85;;;7.30;99.90;;;;;;5097105;28;20047;-69
2022/12/30 01:00:07;;;;;;;168.80;156.73;;;7.40;99.90;;;;;;5097031;28;20044;-69
2022/12/30 01:02:33;;;;;;;171.30;159.80;;;7.30;99.90;;;;;;5095996;28;20446;-69
2022/12/30 01:04:59;;;;;;;171.25;159.93;;;7.20;99.90;;;;;;5096632;28;20093;-69
2022/12/30 01:07:27;;;;;;;168.88;157.85;;;7.30;99.90;;;;;;5096947;28;20040;-69
2022/12/30 01:09:53;;;;;;;175.10;163.27;;;7.30;99.90;;;;;;5095541;28;20048;-70
2022/12/30 01:12:18;;;;;;;173.68;162.63;;;7.40;99.90;;;;;;5096559;28;20069;-69
2022/12/30 01:14:46;;;;;;;178.25;165.43;;;7.30;99.90;;;;;;5096629;28;20040;-69
2022/12/30 01:17:18;;;;;;;178.70;166.82;;;7.30;99.90;;;;;;5096632;28;20115;-69
2022/12/30 01:19:44;;;;;;;177.15;164.93;;;7.20;99.90;;;;;;5096363;28;20047;-69
2022/12/30 01:22:10;;;;;;;172.63;160.88;;;7.20;99.90;;;;;;5096723;28;20383;-69
2022/12/30 01:24:36;;;;;;;178.90;167.13;;;7.10;99.90;;;;;;5096414;28;20099;-69
2022/12/30 01:27:02;;;;;;;182.98;169.98;;;7.10;99.90;;;;;;5096389;28;20449;-71
2022/12/30 01:29:34;;;;;;;174.43;162.85;;;7.10;99.90;;;;;;5096597;28;20109;-69
2022/12/30 01:32:00;;;;;;;168.93;157.75;;;7.00;99.90;;;;;;5096379;28;20082;-69
2022/12/30 01:34:26;;;;;;;173.75;161.73;;;7.00;99.90;;;;;;5096874;28;20108;-69
2022/12/30 01:36:52;;;;;;;168.00;156.30;;;6.90;99.90;;;;;;5096348;28;20036;-69
2022/12/30 01:39:18;;;;;;;165.15;154.00;;;6.90;99.90;;;;;;5096603;28;20095;-69
2022/12/30 01:41:45;;;;;;;166.55;154.50;;;6.90;99.90;;;;;;5096221;28;20051;-70
2022/12/30 01:44:48;;;;;;;170.95;159.52;;;7.00;99.90;;;;;;5096270;28;20050;-69
2022/12/30 01:47:40;;;;;;;167.77;156.25;;;7.00;99.90;;;;;;5096578;28;20392;-69
2022/12/30 01:50:11;;;;;;;165.48;154.85;;;7.00;99.90;;;;;;5096215;28;20040;-69
2022/12/30 01:52:51;;;;;;;162.55;152.35;;;7.00;99.90;;;;;;5096490;28;20127;-69
2022/12/30 01:55:26;;;;;;;164.20;153.13;;;7.00;99.90;;;;;;5096487;28;20417;-69
2022/12/30 01:57:54;;;;;;;163.38;152.60;;;7.00;99.90;;;;;;5096217;28;20436;-69
2022/12/30 02:00:20;;;;;;;166.43;154.63;;;7.10;99.90;;;;;;5095415;28;20157;-69
2022/12/30 02:02:46;;;;;;;167.48;155.48;;;7.00;99.90;;;;;;5096424;28;20448;-69
2022/12/30 02:05:13;;;;;;;166.05;154.88;;;7.00;99.90;;;;;;5096143;28;20429;-69
2022/12/30 02:07:49;;;;;;;164.23;153.27;;;7.00;99.90;;;;;;5096338;28;20044;-69
2022/12/30 02:10:15;;;;;;;;;;;7.00;99.90;;;;;;5097005;28;20047;-69
2022/12/30 02:12:41;;;;;;;160.33;149.63;;;6.90;99.90;;;;;;5096134;28;19916;-70
2022/12/30 02:15:07;;;;;;;159.73;149.07;;;7.00;99.90;;;;;;5096302;28;20071;-69
2022/12/30 02:17:35;;;;;;;161.52;150.00;;;7.10;99.90;;;;;;5095948;28;20425;-69
2022/12/30 02:20:26;;;;;;;159.88;147.80;;;7.10;99.90;;;;;;5096230;28;20123;-69
2022/12/30 02:22:58;;;;;;;162.07;150.20;;;7.10;99.90;;;;;;5095048;28;20101;-77
2022/12/30 02:25:59;;;;;;;159.77;149.18;;;7.10;99.90;;;;;;5091229;28;20059;-73
2022/12/30 02:28:44;;;;;;;162.98;150.88;;;7.20;99.90;;;;;;5090462;28;20043;-69
2022/12/30 02:31:26;;;;;;;159.18;148.18;;;7.20;99.90;;;;;;5099439;28;20051;-69
2022/12/30 02:34:27;;;;;;;161.25;149.25;;;7.30;99.90;;;;;;5099821;28;20062;-69
2022/12/30 02:37:07;;;;;;;160.13;149.10;;;7.20;99.90;;;;;;5099719;28;20032;-69
2022/12/30 02:39:56;;;;;;;161.48;150.65;;;7.30;99.90;;;;;;5099715;28;20051;-69
2022/12/30 02:45:37;;;;;;;157.25;146.95;;;7.30;99.90;;;;;;5099607;28;20051;-70
2022/12/30 02:48:17;;;;;;;160.30;149.57;;;7.30;99.90;;;;;;5099661;28;20093;-70
2022/12/30 02:53:32;;;;;;;164.63;154.48;;;7.30;99.90;;;;;;5099588;28;20090;-69
2022/12/30 02:55:58;;;;;;;163.45;152.65;;;7.40;99.90;;;;;;5099336;28;20043;-69
2022/12/30 02:58:27;;;;;;;164.02;153.02;;;7.40;99.90;;;;;;5099310;28;20036;-69
2022/12/30 03:03:58;;;;;;;157.88;147.15;;;7.20;99.90;;;;;;5099590;28;20054;-69
2022/12/30 03:06:36;;;;;;;155.02;144.80;;;7.40;99.90;;;;;;5078958;28;20049;-69
2022/12/30 03:09:27;;;;;;;158.05;146.73;;;7.50;99.90;;;;;;5077518;28;20330;-70
2022/12/30 03:11:57;;;;;;;158.20;147.82;;;7.40;99.90;;;;;;5078841;28;20056;-70
2022/12/30 03:14:42;;;;;;;156.18;146.20;;;7.30;99.90;;;;;;5078950;28;20071;-69
2022/12/30 03:17:12;;;;;;;153.70;143.77;;;7.30;99.90;;;;;;5078542;28;20043;-69
2022/12/30 03:19:42;;;;;;;160.25;149.48;;;7.30;99.90;;;;;;5078764;28;20043;-70
2022/12/30 03:27:03;;;;;;;159.63;148.73;;;7.30;99.90;;;;;;5078479;28;20098;-69
2022/12/30 03:27:48;;;;;;;165.23;154.27;;;7.10;99.90;;;;;;5078226;28;20452;-69
2022/12/30 03:30:16;;;;;;;159.82;150.00;;;7.10;99.90;;;;;;5078131;28;20037;-69
2022/12/30 03:32:43;;;;;;;164.75;153.65;;;7.20;99.90;;;;;;5078012;28;20338;-69
2022/12/30 03:35:09;;;;;;;168.05;157.00;;;7.10;99.90;;;;;;5078038;28;20102;-69
2022/12/30 03:37:44;;;;;;;170.98;159.55;;;7.10;99.90;;;;;;5078299;28;20037;-69
2022/12/30 03:40:33;;;;;;;168.45;156.80;;;7.20;99.90;;;;;;5078194;28;20040;-69
2022/12/30 03:43:00;;;;;;;168.23;157.20;;;7.10;99.90;;;;;;5077880;28;20129;-69
2022/12/30 03:45:26;;;;;;;164.68;153.60;;;7.10;99.90;;;;;;5077835;28;20457;-69
2022/12/30 03:47:52;;;;;;;166.43;155.60;;;7.00;99.90;;;;;;5078125;28;20136;-69
2022/12/30 03:50:18;;;;;;;168.20;157.32;;;7.10;99.90;;;;;;5077969;28;20211;-69
2022/12/30 03:52:43;;;;;;;164.18;153.63;;;7.20;99.90;;;;;;5077980;28;20046;-70
2022/12/30 03:55:09;;;;;;;167.63;155.98;;;7.10;99.90;;;;;;5077750;28;20390;-69
2022/12/30 03:57:36;;;;;;;171.63;160.57;;;7.00;99.90;;;;;;5077916;28;20029;-69
2022/12/30 04:00:11;;;;;;;164.52;153.40;;;7.10;99.90;;;;;;5077545;28;20433;-69
2022/12/30 04:02:38;;;;;;;161.53;151.20;;;7.10;99.90;;;;;;5078039;28;20101;-69
2022/12/30 04:05:07;;;;;;;160.70;150.27;;;7.10;99.90;;;;;;5077711;28;20045;-69
2022/12/30 04:07:34;;;;;;;161.75;151.05;;;7.00;99.90;;;;;;5077684;28;20040;-69
2022/12/30 04:10:00;;;;;;;162.52;152.80;;;6.90;99.90;;;;;;5077514;28;20068;-70
2022/12/30 04:12:26;;;;;;;157.68;147.80;;;7.00;99.90;;;;;;5077256;28;20032;-70
2022/12/30 04:14:51;;;;;;;162.10;150.95;;;7.00;99.90;;;;;;5077550;28;20491;-69
2022/12/30 04:17:17;;;;;;;162.75;152.50;;;7.00;99.90;;;;;;5077540;28;20367;-69
2022/12/30 04:19:43;;;;;;;165.32;154.73;;;7.00;99.90;;;;;;5077463;28;20064;-69
2022/12/30 04:22:08;;;;;;;160.73;150.48;;;7.00;99.90;;;;;;5077110;28;20040;-69
2022/12/30 04:24:34;;;;;;;163.73;152.05;;;7.00;99.90;;;;;;5077359;28;20048;-69
2022/12/30 04:27:00;;;;;;;160.55;150.45;;;7.00;99.90;;;;;;5077281;28;20253;-69
2022/12/30 04:29:25;;;;;;;161.38;151.50;;;7.00;99.90;;;;;;5077194;28;20433;-69
2022/12/30 04:31:51;;;;;;;163.57;153.55;;;6.90;99.90;;;;;;5077011;28;20052;-69
2022/12/30 04:34:17;;;;;;;161.73;150.80;;;6.80;99.90;;;;;;5076947;28;20051;-69
2022/12/30 04:36:43;;;;;;;160.15;149.43;;;7.00;99.90;;;;;;5077123;28;20036;-70
2022/12/30 04:39:09;;;;;;;163.05;153.10;;;7.00;99.90;;;;;;5077142;28;20028;-69
2022/12/30 04:41:35;;;;;;;160.57;150.35;;;6.90;99.90;;;;;;5077093;28;20369;-70
2022/12/30 04:44:01;;;;;;;167.23;156.55;;;6.90;99.90;;;;;;5076754;28;20075;-69
2022/12/30 04:46:28;;;;;;;163.85;153.65;;;6.90;99.90;;;;;;5076992;28;20040;-69
2022/12/30 04:48:54;;;;;;;158.85;148.88;;;6.80;99.90;;;;;;5058948;28;20044;-69
2022/12/30 04:51:19;;;;;;;162.18;152.10;;;6.70;99.90;;;;;;5076858;28;20115;-69
2022/12/30 04:53:45;;;;;;;169.10;159.18;;;6.80;99.90;;;;;;5075258;28;20064;-70
2022/12/30 04:56:12;;;;;;;173.20;162.13;;;6.70;99.90;;;;;;5076872;28;20040;-70
2022/12/30 04:58:37;;;;;;;169.48;158.82;;;6.80;99.90;;;;;;5076788;28;20083;-70
2022/12/30 05:01:03;;;;;;;167.93;158.35;;;6.80;99.90;;;;;;5076809;28;20064;-69
2022/12/30 05:03:29;;;;;;;168.18;157.40;;;6.80;99.90;;;;;;5077013;28;20033;-69
2022/12/30 05:05:54;;;;;;;168.95;158.63;;;6.80;99.90;;;;;;5077010;28;20393;-70
2022/12/30 05:08:20;;;;;;;170.85;159.57;;;6.90;99.90;;;;;;5076717;28;20334;-70
2022/12/30 05:10:46;;;;;;;162.45;152.23;;;7.00;99.90;;;;;;5076301;28;20045;-69
2022/12/30 05:13:11;;;;;;;171.85;160.70;;;7.10;99.90;;;;;;5076413;28;20036;-69
2022/12/30 05:15:37;;;;;;;165.25;155.23;;;7.10;99.90;;;;;;5076696;28;20035;-69
2022/12/30 05:18:03;;;;;;;164.60;154.43;;;7.00;99.90;;;;;;5076612;28;20083;-69
2022/12/30 05:20:29;;;;;;;162.90;152.32;;;7.00;99.90;;;;;;5076601;28;20043;-70
2022/12/30 05:22:54;;;;;;;171.82;161.00;;;7.00;99.90;;;;;;5076545;28;20072;-69
2022/12/30 05:28:04;;;;;;;172.20;162.23;;;7.00;99.90;;;;;;5076268;28;20137;-70
2022/12/30 05:30:30;;;;;;;173.95;162.63;;;7.00;99.90;;;;;;5076417;28;20083;-69
2022/12/30 05:32:56;;;;;;;173.25;161.65;;;7.00;99.90;;;;;;5076135;28;20419;-69
2022/12/30 05:35:21;;;;;;;166.57;155.90;;;7.00;99.90;;;;;;5075400;28;20387;-70
2022/12/30 05:37:47;;;;;;;163.52;153.85;;;6.90;99.90;;;;;;5076439;28;20043;-70
2022/12/30 05:40:13;;;;;;;160.52;150.45;;;6.90;99.90;;;;;;5076450;28;20515;-69
2022/12/30 05:42:39;;;;;;;160.82;150.32;;;6.80;99.90;;;;;;5075829;28;20328;-70
2022/12/30 05:45:06;;;;;;;159.13;149.77;;;6.80;99.90;;;;;;5075466;28;20044;-69
2022/12/30 05:47:32;;;;;;;159.23;149.07;;;6.90;99.90;;;;;;5076404;28;20028;-69
2022/12/30 05:49:57;;;;;;;157.77;147.90;;;6.90;99.90;;;;;;5076271;28;20325;-70
2022/12/30 05:52:23;;;;;;;160.88;150.95;;;7.00;99.90;;;;;;5076014;28;20078;-69
2022/12/30 05:54:49;;;;;;;162.23;151.48;;;6.90;99.90;;;;;;5076328;28;20036;-69
2022/12/30 05:57:14;;;;;;;164.35;152.63;;;6.70;99.90;;;;;;5075972;28;20032;-69
2022/12/30 05:59:40;;;;;;;159.80;149.95;;;6.70;99.90;;;;;;5076261;28;20057;-69
2022/12/30 06:02:06;;;;;;;158.07;148.07;;;6.70;99.90;;;;;;5076186;28;20064;-69
2022/12/30 06:04:31;;;;;;;152.63;143.32;;;6.70;99.90;;;;;;5077342;28;20043;-69
2022/12/30 06:06:57;;;;;;;150.88;141.63;;;6.70;99.90;;;;;;5079974;28;20044;-69
2022/12/30 06:09:23;;;;;;;156.05;145.70;;;6.60;99.90;;;;;;5079915;28;20059;-69
2022/12/30 06:11:48;;;;;;;163.23;153.43;;;6.60;99.90;;;;;;5079955;28;20033;-69
2022/12/30 06:14:15;;;;;;;162.63;152.80;;;6.60;99.90;;;;;;5079506;28;20048;-69
2022/12/30 06:16:41;;;;;;;157.70;147.88;;;6.60;99.90;;;;;;5079788;28;20098;-69
2022/12/30 06:19:07;;;;;;;158.00;148.75;;;6.40;99.90;;;;;;5079779;28;20040;-69
2022/12/30 06:21:34;;;;;;;158.10;148.05;;;6.50;99.90;;;;;;5079505;28;20044;-69
2022/12/30 06:23:59;;;;;;;158.23;148.82;;;6.50;99.90;;;;;;5079382;28;20425;-69
2022/12/30 06:26:25;;;;;;;159.35;149.90;;;6.50;99.90;;;;;;5079348;28;20032;-69
2022/12/30 06:28:51;;;;;;;154.50;145.45;;;6.50;99.90;;;;;;5079618;28;20043;-69
2022/12/30 06:31:17;;;;;;;153.68;144.38;;;6.40;99.90;;;;;;5079197;28;20055;-69
2022/12/30 06:33:42;;;;;;;151.10;141.55;;;6.40;99.90;;;;;;5079319;28;20055;-70
2022/12/30 06:36:09;;;;;;;148.95;140.00;;;6.40;99.90;;;;;;5078526;28;20367;-69
2022/12/30 06:38:34;;;;;;;149.02;139.13;;;6.30;99.90;;;;;;5078409;28;20041;-69
2022/12/30 06:41:00;;;;;;;153.13;143.75;;;6.40;99.90;;;;;;5095303;28;20051;-69
2022/12/30 06:43:25;;;;;;;150.18;141.35;;;6.30;99.90;;;;;;5078994;28;20209;-69
2022/12/30 06:45:51;;;;;;;152.20;142.93;;;6.40;99.90;;;;;;5079253;28;20049;-70
2022/12/30 06:48:17;;;;;;;151.00;141.48;;;6.40;99.90;;;;;;5078940;28;20041;-69
2022/12/30 06:50:43;;;;;;;143.35;134.80;;;6.40;99.90;;;;;;5078828;28;20129;-69
2022/12/30 06:53:08;;;;;;;145.63;137.13;;;6.30;99.90;;;;;;5078882;28;20091;-69
2022/12/30 06:55:34;;;;;;;151.05;141.43;;;6.40;99.90;;;;;;5079139;28;20044;-69
2022/12/30 06:58:01;;;;;;;149.93;140.25;;;6.40;99.90;;;;;;5079074;28;20095;-69
2022/12/30 07:00:27;;;;;;;150.45;141.13;;;6.30;99.90;;;;;;5078977;28;20127;-69
2022/12/30 07:02:53;;;;;;;150.85;140.90;;;6.40;99.90;;;;;;5079018;28;20040;-69
2022/12/30 07:05:18;;;;;;;153.98;144.80;;;6.40;99.90;;;;;;5077668;28;20044;-69
2022/12/30 07:07:44;;;;;;;142.43;134.23;;;6.40;99.90;;;;;;5079274;28;20079;-69
2022/12/30 07:10:10;;;;;;;153.38;143.73;;;6.30;99.90;;;;;;5078606;28;20381;-69
2022/12/30 07:12:35;;;;;;;152.75;143.93;;;6.40;99.90;;;;;;5077247;28;20049;-69
2022/12/30 07:15:01;;;;;;;148.65;139.95;;;6.40;99.90;;;;;;5078357;28;20036;-69
2022/12/30 07:17:27;;;;;;;148.27;139.40;;;6.30;99.90;;;;;;5078400;28;20032;-69
2022/12/30 07:19:52;;;;;;;144.40;135.70;;;6.40;99.90;;;;;;5078717;28;20078;-70
2022/12/30 07:22:18;;;;;;;137.05;128.73;;;6.30;99.90;;;;;;5078591;28;20045;-69
2022/12/30 07:24:44;;;;;;;149.70;141.25;;;6.20;99.90;;;;;;5078620;28;20040;-69
2022/12/30 07:27:10;;;;;;;149.18;140.27;;;6.20;99.90;;;;;;5078509;28;20048;-69
2022/12/30 07:29:36;;;;;;;154.13;144.90;;;6.00;99.90;;;;;;5078401;28;20083;-70
2022/12/30 07:32:02;;;;;;;152.02;142.55;;;6.00;99.90;;;;;;5078209;28;20086;-69
2022/12/30 07:34:27;;;;;;;149.80;140.88;;;5.90;99.90;;;;;;5078400;28;20068;-69
2022/12/30 07:36:53;;;;;;;147.27;137.88;;;5.90;99.90;;;;;;5078342;28;20036;-69
2022/12/30 07:39:19;;;;;;;150.23;141.43;;;5.80;99.90;;;;;;5078294;28;20032;-69
2022/12/30 07:41:44;;;;;;;138.35;130.45;;;6.00;99.90;;;;;;5077292;28;20059;-69
2022/12/30 07:44:10;;;;;;;141.20;132.88;;;6.00;99.90;;;;;;5077859;28;20032;-69
2022/12/30 07:46:36;;;;;;;139.75;131.57;;;5.90;99.90;;;;;;5077906;28;20129;-70
2022/12/30 07:49:02;;;;;;;142.30;133.90;;;5.90;99.90;;;;;;5078164;28;20048;-69
2022/12/30 07:51:28;;;;;;;135.93;127.50;;;5.80;99.90;;;;;;5078068;28;20078;-69
2022/12/30 07:53:54;;;;;;;144.75;136.15;;;5.70;99.90;;;;;;5110626;28;20063;-69
2022/12/30 07:56:19;;;;;;;145.18;135.88;;;5.90;99.90;;;;;;5077970;28;20068;-69
2022/12/30 07:58:45;;;;;;;143.32;134.65;;;5.80;99.90;;;;;;5077917;28;20043;-69
2022/12/30 08:01:13;;;;;;;140.65;132.50;;;5.80;99.90;;;;;;5077856;28;20045;-69
2022/12/30 08:03:40;;;;;;;136.95;128.05;;;5.70;99.90;;;;;;5077467;28;20036;-69
2022/12/30 08:06:09;;;;;;;138.70;129.20;;;5.70;99.90;;;;;;5077748;28;20032;-69
2022/12/30 08:08:35;;;;;;;141.15;132.13;;;5.70;99.90;;;;;;5077738;28;20036;-70
2022/12/30 08:11:03;;;;;;;141.85;133.65;;;5.70;99.90;;;;;;5077555;28;20041;-69
2022/12/30 08:13:34;;;;;;;142.38;133.27;;;5.80;99.90;;;;;;5077222;28;20393;-69
2022/12/30 08:16:04;;;;;;;139.63;130.77;;;5.90;99.90;;;;;;5096149;28;20036;-70
2022/12/30 08:18:29;;;;;;;141.55;133.13;;;5.90;99.90;;;;;;5097209;28;20169;-70
2022/12/30 08:21:02;;;;;;;141.75;132.98;;;6.00;99.90;;;;;;5096282;28;20130;-69
2022/12/30 08:23:32;;;;;;;143.15;134.70;;;5.90;99.90;;;;;;5097707;28;20036;-69
2022/12/30 08:26:08;;;;;;;141.88;133.38;;;5.90;99.90;;;;;;5097641;28;20070;-69
2022/12/30 08:28:35;;;;;;;138.63;130.15;;;5.90;99.90;;;;;;5096678;28;20047;-69
2022/12/30 08:31:09;;;;;;;138.13;130.07;;;5.90;99.90;;;;;;5097522;28;20044;-69
2022/12/30 08:33:35;;;;;;;138.70;130.88;;;6.00;99.90;;;;;;5097448;28;20052;-69
2022/12/30 08:36:02;;;;;;;138.18;129.80;;;6.00;99.90;;;;;;5097473;28;20036;-69
2022/12/30 08:38:27;;;;;;;141.10;132.40;;;6.00;99.90;;;;;;5097439;28;20302;-68
2022/12/30 08:40:53;;;;;;;151.63;141.38;;;6.00;99.90;;;;;;5097374;28;20051;-70
2022/12/30 08:43:20;;;;;;;140.60;131.85;;;6.20;99.90;;;;;;5096959;28;20036;-65
2022/12/30 08:45:55;;;;;;;142.95;134.50;;;6.20;99.90;;;;;;5097267;28;20048;-66
2022/12/30 08:48:21;;;;;;;142.00;133.50;;;6.20;99.90;;;;;;5097892;28;20042;-66
2022/12/30 08:50:47;;;;;;;134.98;127.40;;;6.30;99.90;;;;;;5097139;28;20048;-69
2022/12/30 08:53:12;;;;;;;139.88;131.55;;;6.10;99.90;;;;;;5096974;28;20039;-68
2022/12/30 08:55:38;;;;;;;140.38;131.80;;;6.10;99.90;;;;;;5097147;28;20040;-67
2022/12/30 08:58:03;;;;;;;138.65;130.75;;;6.10;99.90;;;;;;5097123;28;20394;-69
2022/12/30 09:00:29;;;;;;;141.50;133.20;;;6.10;99.90;;;;;;5097055;28;20047;-69
2022/12/30 09:02:55;;;;;;;141.93;133.75;;;6.20;99.90;;;;;;5097004;28;20032;-67
2022/12/30 09:05:20;;;;;;;142.65;134.20;;;6.20;99.90;;;;;;5097015;28;20040;-68
2022/12/30 09:07:46;;;;;;;141.23;133.23;;;6.20;99.90;;;;;;5096772;28;20118;-69
2022/12/30 09:10:12;;;;;;;142.38;133.77;;;6.20;99.90;;;;;;5096836;28;20040;-69
2022/12/30 09:12:38;;;;;;;142.85;134.98;;;6.20;99.90;;;;;;5096219;28;20036;-70
2022/12/30 09:15:06;;;;;;;142.43;133.40;;;6.30;99.90;;;;;;5095800;28;20303;-69
2022/12/30 09:17:31;;;;;;;137.98;129.98;;;6.30;99.90;;;;;;5096585;28;20507;-69
2022/12/30 09:19:57;;;;;;;137.68;129.52;;;6.30;99.90;;;;;;5096801;28;20047;-71
2022/12/30 09:22:23;;;;;;;138.82;130.68;;;6.30;99.90;;;;;;5078656;28;20127;-68
2022/12/30 09:24:48;;;;;;;144.27;135.93;;;6.30;99.90;;;;;;5095455;28;20057;-68
2022/12/30 09:27:14;;;;;;;142.02;134.10;;;6.50;99.90;;;;;;5096768;28;20036;-69
2022/12/30 09:29:39;;;;;;;142.32;133.65;;;6.50;99.90;;;;;;5096651;28;20051;-70
2022/12/30 09:32:05;;;;;;;139.75;132.02;;;6.40;99.90;;;;;;5078405;28;20052;-69
2022/12/30 09:34:31;;;;;;;143.68;134.98;;;6.40;99.90;;;;;;5096688;28;20128;-70
2022/12/30 09:36:56;;;;;;;142.15;133.63;;;6.40;99.90;;;;;;5096362;28;20036;-71
2022/12/30 09:39:30;;;;;;;142.25;133.63;;;6.30;99.90;;;;;;5099043;28;20036;-68
2022/12/30 09:45:02;;;;;;;;;;;6.40;99.90;;;;;;5099697;28;20046;-73
2022/12/30 09:47:33;;;;;;;138.70;130.35;;;6.50;99.90;;;;;;5099430;28;19916;-68
2022/12/30 09:50:12;;;;;;;129.50;121.80;;;6.50;99.90;;;;;;5100733;28;20065;-68
2022/12/30 09:52:50;;;;;;;133.20;125.05;;;6.40;99.90;;;;;;5100639;28;20082;-68
2022/12/30 09:55:20;;;;;;;139.80;132.25;;;6.50;99.90;;;;;;5100609;28;20036;-69
2022/12/30 09:57:51;;;;;;;140.02;131.88;;;6.50;99.90;;;;;;5100185;28;20039;-67
2022/12/30 10:00:22;;;;;;;142.13;133.82;;;6.50;99.90;;;;;;5100556;28;20382;-68
2022/12/30 10:03:05;;;;;;;140.77;132.63;;;6.60;99.90;;;;;;5100431;28;20123;-69
2022/12/30 10:05:42;;;;;;;143.85;135.18;;;6.60;99.90;;;;;;5100435;28;20332;-68
2022/12/30 10:08:30;;;;;;;135.90;127.97;;;6.70;99.90;;;;;;5100342;28;20352;-68
2022/12/30 10:11:13;;;;;;;142.20;133.32;;;6.70;99.90;;;;;;5099992;28;20051;-68
2022/12/30 10:13:55;;;;;;;141.35;132.93;;;6.70;99.90;;;;;;5099840;28;20046;-68
2022/12/30 10:16:52;;;;;;;142.98;134.30;;;6.70;99.90;;;;;;5099882;28;20461;-68
2022/12/30 10:19:21;;;;;;;138.52;131.02;;;6.70;99.90;;;;;;5099834;28;20468;-68
2022/12/30 10:21:59;;;;;;;142.57;134.80;;;6.70;99.90;;;;;;5100078;28;20051;-69
2022/12/30 10:24:42;;;;;;;139.85;132.30;;;6.90;99.90;;;;;;5098699;28;20043;-69
2022/12/30 10:27:20;;;;;;;145.80;137.82;;;7.00;99.90;;;;;;5100003;28;20321;-68
2022/12/30 10:29:46;;;;;;;141.95;133.55;;;7.00;99.90;;;;;;5099833;28;20130;-68
2022/12/30 10:32:21;;;;;;;140.82;133.63;;;7.10;99.90;;;;;;5099575;28;20378;-67
2022/12/30 10:34:50;;;;;;;144.48;136.13;;;7.00;99.90;;;;;;5099801;28;20047;-68
2022/12/30 10:37:36;;;;;;;143.55;135.15;;;7.30;99.90;;;;;;5098717;28;20130;-70
2022/12/30 10:40:09;;;;;;;143.77;135.88;;;7.20;99.90;;;;;;5099555;28;20110;-67
2022/12/30 10:42:53;;;;;;;143.20;135.23;;;7.30;99.90;;;;;;5099322;28;20040;-67
2022/12/30 10:45:40;;;;;;;139.13;131.45;;;7.30;99.90;;;;;;5098388;28;20036;-67
2022/12/30 10:48:39;;;;;;;140.75;132.80;;;7.30;99.90;;;;;;5099561;28;20369;-67
2022/12/30 10:51:06;;;;;;;142.90;135.02;;;7.40;99.90;;;;;;5098677;28;20329;-67
2022/12/30 10:53:31;;;;;;;133.90;126.53;;;7.50;99.90;;;;;;5099437;28;20067;-67
2022/12/30 10:56:02;;;;;;;138.57;130.75;;;7.50;99.90;;;;;;5099404;28;20080;-70
2022/12/30 10:58:43;;;;;;;132.98;125.68;;;7.50;99.90;;;;;;5099349;28;20097;-69
2022/12/30 11:01:18;;;;;;;130.18;122.90;;;7.60;99.90;;;;;;5097927;28;20047;-72
2022/12/30 11:03:53;;;;;;;116.38;109.63;;;7.60;99.90;;;;;;5098356;28;20048;-68
2022/12/30 11:06:26;;;;;;;120.45;113.68;;;7.60;99.90;;;;;;5099216;28;20036;-68
2022/12/30 11:09:13;;;;;;;120.65;114.22;;;7.60;99.90;;;;;;5097819;28;20394;-72
2022/12/30 11:14:42;;;;;;;118.85;112.60;;;7.70;99.90;;;;;;5098336;28;20397;-68
2022/12/30 11:17:14;;;;;;;121.35;115.15;;;7.60;99.90;;;;;;5098725;28;20413;-69
2022/12/30 11:19:40;;;;;;;132.95;125.55;;;7.70;99.90;;;;;;5098613;28;20036;-77
2022/12/30 11:22:06;;;;;;;119.50;113.07;;;7.70;99.90;;;;;;5098891;28;20035;-77
2022/12/30 11:24:31;;;;;;;118.05;111.72;;;7.80;99.90;;;;;;5080737;28;20345;-76
2022/12/30 11:26:57;;;;;;;127.15;120.40;;;7.80;99.90;;;;;;5097387;28;20039;-68
2022/12/30 11:29:27;;;;;;;118.35;111.90;;;7.90;99.90;;;;;;5098622;28;20085;-77
2022/12/30 11:31:53;;;;;;;122.13;115.63;;;7.90;99.90;;;;;;5081123;28;20387;-68
2022/12/30 11:34:33;;;;;;;118.47;110.38;;;7.90;99.90;;;;;;5098701;28;20101;-68
2022/12/30 11:36:59;;;;;;;131.30;119.18;;;7.90;99.90;;;;;;5098612;28;20040;-68
2022/12/30 11:39:32;;;;;;;120.22;113.28;;;7.90;99.90;;;;;;5098612;28;20040;-68
2022/12/30 11:42:01;;;;;;;118.05;111.13;;;7.90;99.90;;;;;;5098208;28;20448;-68
2022/12/30 11:44:32;;;;;;;112.20;104.45;;;8.00;99.90;;;;;;5098075;28;20040;-69
2022/12/30 11:47:06;;;;;;;126.80;117.47;;;8.00;99.90;;;;;;5098382;28;20371;-68
2022/12/30 11:49:53;;;;;;;123.85;115.72;;;8.20;99.90;;;;;;5098326;28;20154;-68
2022/12/30 11:52:26;;;;;;;110.03;103.90;;;8.30;99.90;;;;;;5098297;28;20107;-68
2022/12/30 11:54:59;;;;;;;111.25;104.55;;;8.30;99.90;;;;;;5097922;28;20429;-68
2022/12/30 11:57:33;;;;;;;118.65;111.75;;;8.30;99.90;;;;;;5098530;28;20082;-68
2022/12/30 12:00:27;;;;;;;114.20;107.35;;;8.30;99.90;;;;;;5098181;28;20036;-68
2022/12/30 12:03:05;;;;;;;107.13;101.40;;;8.30;99.90;;;;;;5096773;28;20044;-70
2022/12/30 12:05:39;;;;;;;102.03;96.18;;;8.30;99.90;;;;;;5098157;28;20122;-70
2022/12/30 12:08:12;;;;;;;97.18;91.88;;;8.30;99.90;;;;;;5098147;28;20044;-70
2022/12/30 12:10:39;;;;;;;103.38;98.03;;;8.30;99.90;;;;;;5097243;28;20074;-74
2022/12/30 12:13:43;;;;;;;107.43;98.10;;;8.40;99.90;;;;;;5079145;28;20043;-69
2022/12/30 12:16:15;;;;;;;103.60;96.80;;;8.40;99.90;;;;;;5073577;28;20058;-68
2022/12/30 12:18:44;;;;;;;94.40;89.55;;;8.40;99.90;;;;;;5097971;28;20040;-70
2022/12/30 12:21:14;;;;;;;96.40;90.43;;;8.30;99.90;;;;;;5096827;28;20062;-69
2022/12/30 12:23:49;;;;;;;100.28;94.38;;;8.30;99.90;;;;;;5097861;28;20047;-69
2022/12/30 12:26:31;;;;;;;101.32;94.55;;;8.60;99.90;;;;;;5097432;28;20464;-69
2022/12/30 12:28:58;;;;;;;103.97;97.85;;;8.60;99.90;;;;;;5097494;28;20054;-69
2022/12/30 12:31:41;;;;;;;99.00;93.57;;;8.60;99.90;;;;;;5097416;28;20032;-70
2022/12/30 12:34:35;;;;;;;90.57;85.80;;;8.60;99.90;;;;;;5097691;28;20052;-72
2022/12/30 12:37:20;;;;;;;92.90;87.90;;;8.60;99.90;;;;;;5097627;28;20051;-69
2022/12/30 12:40:14;;;;;;;80.45;76.07;;;8.70;99.90;;;;;;5097572;28;20055;-69
2022/12/30 12:43:28;;;;;;;79.57;75.38;;;8.60;99.90;;;;;;5097025;28;20040;-69
2022/12/30 12:46:12;;;;;;;80.05;75.70;;;8.60;99.90;;;;;;5054959;28;20123;-68
2022/12/30 12:49:05;;;;;;;87.28;82.28;;;8.70;99.90;;;;;;5093894;28;20048;-68
2022/12/30 12:51:33;;;;;;;72.40;67.80;;;8.70;99.90;;;;;;5096976;28;20082;-67
2022/12/30 12:54:22;;;;;;;80.60;76.07;;;8.70;99.90;;;;;;5096937;28;20055;-66
2022/12/30 12:57:36;;;;;;;69.15;65.50;;;8.80;99.90;;;;;;5096663;28;20072;-66
2022/12/30 13:00:10;;;;;;;84.35;79.85;;;8.70;99.90;;;;;;5093494;28;20044;-67
2022/12/30 13:03:02;;;;;;;79.88;75.53;;;8.80;99.90;;;;;;5096188;28;20397;-67
2022/12/30 13:05:36;;;;;;;78.55;74.28;;;8.80;99.90;;;;;;5080965;28;20052;-66
2022/12/30 13:08:44;;;;;;;75.40;71.38;;;8.80;99.90;;;;;;5097180;28;20048;-66
2022/12/30 13:11:28;;;;;;;;;;;8.90;99.90;;;;;;5097596;28;20051;-66
2022/12/30 13:14:04;;;;;;;62.00;58.30;;;8.90;99.90;;;;;;5095927;28;20225;-67
2022/12/30 13:16:36;;;;;;;61.42;58.05;;;8.90;99.90;;;;;;5097085;28;20367;-66
2022/12/30 13:19:03;;;;;;;67.43;64.00;;;8.90;99.90;;;;;;5097005;28;20044;-67
2022/12/30 13:21:30;;;;;;;63.80;60.40;;;9.00;99.90;;;;;;5096964;28;20059;-66
2022/12/30 13:24:04;;;;;;;64.20;60.53;;;8.90;99.90;;;;;;5096643;28;20504;-66
2022/12/30 13:26:32;;;;;;;67.75;64.07;;;9.00;99.90;;;;;;5096940;28;20382;-66
2022/12/30 13:29:00;;;;;;;62.13;58.40;;;9.00;99.90;;;;;;5095885;28;20075;-66
2022/12/30 13:31:26;;;;;;;61.42;57.67;;;9.00;99.90;;;;;;5096768;28;20055;-66